createdAt,value
2022-11-03T00:01:55.837Z,98141.25
2022-11-03T00:04:22.526Z,98135.25
2022-11-03T00:06:49.407Z,98137.78
2022-11-03T00:09:16.061Z,98138.63
2022-11-03T00:11:42.708Z,98143.06
2022-11-03T00:14:09.493Z,98137.47
2022-11-03T00:16:36.289Z,98147.09
2022-11-03T00:19:02.933Z,98144.25
2022-11-03T00:21:29.594Z,98142.63
2022-11-03T00:23:56.438Z,98149.50
2022-11-03T00:26:23.483Z,98148.13
2022-11-03T00:28:50.123Z,98149.50
2022-11-03T00:31:16.891Z,98149.63
2022-11-03T00:33:43.539Z,98151.53
2022-11-03T00:36:10.161Z,98144.97
2022-11-03T00:38:36.803Z,98148.81
2022-11-03T00:41:03.402Z,98138.22
2022-11-03T00:43:30.247Z,98140.09
2022-11-03T00:45:56.868Z,98138.84
2022-11-03T00:48:23.555Z,98132.91
2022-11-03T00:50:50.193Z,98134.94
2022-11-03T00:53:16.822Z,98129.34
2022-11-03T00:55:43.565Z,98128.72
2022-11-03T00:58:10.204Z,98130.56
2022-11-03T01:00:36.908Z,98140.41
2022-11-03T01:03:03.785Z,98129.78
2022-11-03T01:05:30.526Z,98136.75
2022-11-03T01:07:57.140Z,98132.16
2022-11-03T01:10:23.789Z,98126.50
2022-11-03T01:12:50.463Z,98127.31
2022-11-03T01:15:17.082Z,98127.31
2022-11-03T01:17:43.718Z,98123.66
2022-11-03T01:20:10.364Z,98126.47
2022-11-03T01:22:37.120Z,98117.97
2022-11-03T01:25:03.826Z,98121.38
2022-11-03T01:27:30.449Z,98118.13
2022-11-03T01:29:57.094Z,98119.31
2022-11-03T01:32:23.708Z,98114.22
2022-11-03T01:34:50.327Z,98117.91
2022-11-03T01:37:17.183Z,98110.09
2022-11-03T01:39:43.826Z,98109.34
2022-11-03T01:42:10.519Z,98109.91
2022-11-03T01:44:37.160Z,98111.34
2022-11-03T01:47:03.761Z,98107.47
2022-11-03T01:49:30.406Z,98110.06
2022-11-03T01:51:57.189Z,98103.88
2022-11-03T01:54:23.797Z,98107.66
2022-11-03T01:56:50.403Z,98107.94
2022-11-03T01:59:17.109Z,98096.63
2022-11-03T02:01:43.900Z,98095.88
2022-11-03T02:04:10.612Z,98094.34
2022-11-03T02:06:37.264Z,98099.75
2022-11-03T02:09:03.878Z,98089.84
2022-11-03T02:11:30.512Z,98086.50
2022-11-03T02:13:57.228Z,98080.25
2022-11-03T02:16:23.944Z,98079.16
2022-11-03T02:18:50.572Z,98085.84
2022-11-03T02:21:17.205Z,98075.34
2022-11-03T02:23:43.858Z,98070.81
2022-11-03T02:26:10.468Z,98070.63
2022-11-03T02:28:37.112Z,98067.28
2022-11-03T02:31:03.712Z,98069.00
2022-11-03T02:33:30.325Z,98070.84
2022-11-03T02:35:57.050Z,98065.22
2022-11-03T02:38:23.686Z,98067.88
2022-11-03T02:40:50.322Z,98061.47
2022-11-03T02:43:17.023Z,98058.97
2022-11-03T02:45:43.704Z,98063.00
2022-11-03T02:48:10.375Z,98064.72
2022-11-03T02:50:37.012Z,98067.78
2022-11-03T02:53:03.834Z,98069.34
2022-11-03T02:55:30.667Z,98075.22
2022-11-03T02:57:57.317Z,98069.72
2022-11-03T03:00:24.215Z,98071.31
2022-11-03T03:02:50.895Z,98074.28
2022-11-03T03:05:17.537Z,98082.72
2022-11-03T03:07:44.129Z,98076.22
2022-11-03T03:10:10.777Z,98072.97
2022-11-03T03:12:37.756Z,98073.69
2022-11-03T03:15:04.543Z,98062.56
2022-11-03T03:17:31.224Z,98060.78
2022-11-03T03:19:57.912Z,98069.09
2022-11-03T03:22:24.562Z,98069.28
2022-11-03T03:24:51.168Z,98061.72
2022-11-03T03:27:18.035Z,98070.72
2022-11-03T03:29:44.664Z,98056.81
2022-11-03T03:32:11.500Z,98060.09
2022-11-03T03:34:38.148Z,98066.63
2022-11-03T03:37:04.782Z,98071.16
2022-11-03T03:39:31.423Z,98063.16
2022-11-03T03:41:58.126Z,98058.91
2022-11-03T03:44:24.801Z,98062.38
2022-11-03T03:46:51.563Z,98062.34
2022-11-03T03:49:18.160Z,98066.03
2022-11-03T03:51:44.827Z,98066.44
2022-11-03T03:54:11.470Z,98054.19
2022-11-03T03:56:38.189Z,98065.63
2022-11-03T03:59:04.793Z,98062.34
2022-11-03T04:01:31.527Z,98058.25
2022-11-03T04:03:58.251Z,98063.41
2022-11-03T04:06:24.905Z,98064.31
2022-11-03T04:08:51.608Z,98060.06
2022-11-03T04:11:18.234Z,98063.47
2022-11-03T04:13:44.866Z,98061.03
2022-11-03T04:16:11.471Z,98056.66
2022-11-03T04:18:38.153Z,98053.66
2022-11-03T04:21:04.770Z,98060.63
2022-11-03T04:23:32.083Z,98056.59
2022-11-03T04:25:58.776Z,98057.16
2022-11-03T04:28:25.396Z,98047.69
2022-11-03T04:30:54.704Z,98051.28
2022-11-03T04:33:24.493Z,98051.81
2022-11-03T04:35:51.128Z,98046.38
2022-11-03T04:38:17.751Z,98047.25
2022-11-03T04:40:44.444Z,98047.81
2022-11-03T04:43:11.241Z,98057.19
2022-11-03T04:45:37.886Z,98052.38
2022-11-03T04:48:04.538Z,98055.81
2022-11-03T04:50:31.159Z,98053.22
2022-11-03T04:52:57.812Z,98054.47
2022-11-03T04:55:24.460Z,98050.91
2022-11-03T04:57:51.105Z,98045.75
2022-11-03T05:00:17.743Z,98046.72
2022-11-03T05:02:44.396Z,98049.34
2022-11-03T05:05:11.037Z,98047.75
2022-11-03T05:07:37.692Z,98046.06
2022-11-03T05:10:04.327Z,98040.09
2022-11-03T05:12:30.972Z,98038.94
2022-11-03T05:14:59.050Z,98035.25
2022-11-03T05:17:25.901Z,98031.63
2022-11-03T05:19:52.559Z,98033.81
2022-11-03T05:22:19.188Z,98038.31
2022-11-03T05:24:45.843Z,98030.56
2022-11-03T05:27:12.515Z,98035.28
2022-11-03T05:29:39.181Z,98026.06
2022-11-03T05:32:05.828Z,98028.88
2022-11-03T05:34:32.491Z,98024.44
2022-11-03T05:36:59.123Z,98019.97
2022-11-03T05:39:25.746Z,98022.41
2022-11-03T05:41:52.416Z,98014.22
2022-11-03T05:44:19.155Z,98023.38
2022-11-03T05:46:45.787Z,98022.03
2022-11-03T05:49:12.431Z,98023.50
2022-11-03T05:51:39.774Z,98020.94
2022-11-03T05:54:06.422Z,98023.94
2022-11-03T05:56:33.040Z,98031.25
2022-11-03T05:58:59.712Z,98019.56
2022-11-03T06:01:26.485Z,98032.44
2022-11-03T06:03:53.197Z,98037.75
2022-11-03T06:06:19.850Z,98041.59
2022-11-03T06:08:46.510Z,98032.84
2022-11-03T06:11:13.158Z,98031.34
2022-11-03T06:13:39.826Z,98032.13
2022-11-03T06:16:06.482Z,98032.09
2022-11-03T06:18:33.173Z,98038.59
2022-11-03T06:20:59.890Z,98042.94
2022-11-03T06:23:26.564Z,98038.84
2022-11-03T06:25:53.198Z,98049.63
2022-11-03T06:28:19.823Z,98040.78
2022-11-03T06:30:46.502Z,98044.03
2022-11-03T06:33:13.127Z,98042.44
2022-11-03T06:35:39.996Z,98046.69
2022-11-03T06:38:06.633Z,98045.03
2022-11-03T06:40:33.274Z,98044.28
2022-11-03T06:42:59.950Z,98047.31
2022-11-03T06:45:26.625Z,98049.97
2022-11-03T06:47:53.280Z,98046.88
2022-11-03T06:50:21.043Z,98051.16
2022-11-03T06:55:16.811Z,98055.28
2022-11-03T06:57:43.880Z,98055.59
2022-11-03T07:00:33.155Z,98050.69
2022-11-03T07:02:57.188Z,98059.22
2022-11-03T07:05:23.862Z,98051.19
2022-11-03T07:07:50.497Z,98053.41
2022-11-03T07:10:17.135Z,98051.91
2022-11-03T07:12:43.771Z,98060.69
2022-11-03T07:15:10.412Z,98053.78
2022-11-03T07:17:37.033Z,98051.78
2022-11-03T07:20:03.675Z,98055.63
2022-11-03T07:22:30.311Z,98047.00
2022-11-03T07:24:56.958Z,98053.31
2022-11-03T07:27:23.615Z,98048.34
2022-11-03T07:29:50.290Z,98043.59
2022-11-03T07:32:16.916Z,98039.75
2022-11-03T07:34:43.584Z,98042.22
2022-11-03T07:39:42.142Z,98035.16
2022-11-03T07:42:08.789Z,98023.63
2022-11-03T07:44:35.443Z,98017.41
2022-11-03T07:47:02.125Z,98015.72
2022-11-03T07:49:28.821Z,98015.28
2022-11-03T07:51:55.512Z,98016.78
2022-11-03T07:54:22.146Z,98017.38
2022-11-03T07:56:48.806Z,98008.25
2022-11-03T07:59:15.734Z,98015.81
2022-11-03T08:01:42.520Z,98010.56
2022-11-03T08:04:09.318Z,98008.53
2022-11-03T08:06:35.999Z,97995.75
2022-11-03T08:09:02.841Z,97995.09
2022-11-03T08:11:30.023Z,97989.31
2022-11-03T08:13:56.822Z,97982.19
2022-11-03T08:16:23.488Z,97985.97
2022-11-03T08:18:50.157Z,97986.13
2022-11-03T08:21:16.854Z,97976.97
2022-11-03T08:23:47.376Z,97966.22
2022-11-03T08:26:14.575Z,97975.81
2022-11-03T08:28:41.348Z,97964.59
2022-11-03T08:31:12.250Z,97968.22
2022-11-03T08:33:39.819Z,97964.75
2022-11-03T08:36:06.459Z,97959.09
2022-11-03T08:38:33.124Z,97953.41
2022-11-03T08:40:59.822Z,97951.22
2022-11-03T08:43:26.480Z,97942.00
2022-11-03T08:45:53.094Z,97943.75
2022-11-03T08:48:19.786Z,97934.13
2022-11-03T08:53:30.489Z,97925.91
2022-11-03T08:55:57.166Z,97920.50
2022-11-03T08:58:23.812Z,97918.66
2022-11-03T09:00:50.676Z,97918.69
2022-11-03T09:03:17.466Z,97910.59
2022-11-03T09:05:44.117Z,97910.16
2022-11-03T09:10:57.424Z,97911.75
2022-11-03T09:13:24.114Z,97908.88
2022-11-03T09:15:50.758Z,97898.94
2022-11-03T09:18:17.420Z,97894.94
2022-11-03T09:20:44.080Z,97895.69
2022-11-03T09:23:10.869Z,97898.19
2022-11-03T09:25:37.516Z,97893.16
2022-11-03T09:28:04.344Z,97893.66
2022-11-03T09:30:31.137Z,97890.13
2022-11-03T09:32:57.803Z,97884.19
2022-11-03T09:35:24.448Z,97886.78
2022-11-03T09:37:51.188Z,97886.84
2022-11-03T09:40:17.888Z,97876.09
2022-11-03T09:42:44.581Z,97876.34
2022-11-03T09:45:11.251Z,97874.63
2022-11-03T09:47:37.987Z,97877.66
2022-11-03T09:50:04.624Z,97876.84
2022-11-03T09:52:31.278Z,97866.34
2022-11-03T09:54:57.924Z,97865.22
2022-11-03T09:57:24.611Z,97851.88
2022-11-03T09:59:51.265Z,97848.44
2022-11-03T10:02:18.059Z,97849.81
2022-11-03T10:04:44.755Z,97838.06
2022-11-03T10:07:13.405Z,97835.06
2022-11-03T10:09:40.111Z,97832.38
2022-11-03T10:12:06.793Z,97825.41
2022-11-03T10:14:33.529Z,97824.38
2022-11-03T10:17:00.253Z,97816.00
2022-11-03T10:19:27.018Z,97811.56
2022-11-03T10:21:53.658Z,97811.00
2022-11-03T10:24:20.329Z,97802.13
2022-11-03T10:26:46.990Z,97794.59
2022-11-03T10:29:13.649Z,97787.94
2022-11-03T10:31:40.385Z,97785.47
2022-11-03T10:34:07.015Z,97779.41
2022-11-03T10:36:33.694Z,97775.56
2022-11-03T10:39:00.356Z,97769.28
2022-11-03T10:41:27.457Z,97756.25
2022-11-03T10:43:54.116Z,97750.78
2022-11-03T10:46:44.557Z,97746.34
2022-11-03T10:51:38.964Z,97745.06
2022-11-03T10:54:05.653Z,97738.06
2022-11-03T10:56:32.305Z,97726.56
2022-11-03T11:01:30.831Z,97723.66
2022-11-03T11:03:57.643Z,97726.66
2022-11-03T11:06:24.320Z,97725.28
2022-11-03T11:08:52.887Z,97716.91
2022-11-03T11:11:21.593Z,97700.59
2022-11-03T11:13:48.232Z,97705.81
2022-11-03T11:16:14.958Z,97700.41
2022-11-03T11:18:41.612Z,97697.47
2022-11-03T11:21:08.398Z,97691.50
2022-11-03T11:23:35.060Z,97684.06
2022-11-03T11:26:01.726Z,97674.13
2022-11-03T11:28:28.441Z,97671.22
2022-11-03T11:30:55.120Z,97673.63
2022-11-03T11:33:21.826Z,97667.94
2022-11-03T11:35:48.535Z,97666.31
2022-11-03T11:38:15.230Z,97666.91
2022-11-03T11:40:41.878Z,97663.09
2022-11-03T11:43:08.796Z,97661.91
2022-11-03T11:45:35.632Z,97659.50
2022-11-03T11:48:02.260Z,97652.38
2022-11-03T11:50:28.961Z,97645.56
2022-11-03T11:52:55.594Z,97640.94
2022-11-03T11:55:22.361Z,97638.44
2022-11-03T11:57:49.267Z,97638.09
2022-11-03T12:00:15.950Z,97629.41
2022-11-03T12:02:42.604Z,97630.28
2022-11-03T12:05:09.291Z,97618.34
2022-11-03T12:10:20.109Z,97602.25
2022-11-03T12:12:46.734Z,97591.38
2022-11-03T12:15:13.393Z,97596.78
2022-11-03T12:17:40.045Z,97596.75
2022-11-03T12:20:06.713Z,97579.56
2022-11-03T12:22:33.378Z,97580.00
2022-11-03T12:25:00.047Z,97572.47
2022-11-03T12:27:26.676Z,97562.75
2022-11-03T12:29:53.360Z,97553.09
2022-11-03T12:32:33.441Z,97548.06
2022-11-03T12:35:01.045Z,97554.00
2022-11-03T12:37:27.726Z,97552.38
2022-11-03T12:39:54.428Z,97549.31
2022-11-03T12:42:21.235Z,97548.84
2022-11-03T12:44:48.097Z,97546.38
2022-11-03T12:47:14.990Z,97543.13
2022-11-03T12:49:41.657Z,97544.88
2022-11-03T12:52:08.691Z,97534.53
2022-11-03T12:54:35.562Z,97527.63
2022-11-03T12:57:02.308Z,97521.22
2022-11-03T12:59:28.972Z,97501.25
2022-11-03T13:01:55.784Z,97506.31
2022-11-03T13:04:22.514Z,97489.66
2022-11-03T13:06:49.191Z,97485.44
2022-11-03T13:09:15.835Z,97481.66
2022-11-03T13:11:42.506Z,97475.66
2022-11-03T13:14:09.182Z,97477.25
2022-11-03T13:16:35.869Z,97476.97
2022-11-03T13:19:02.517Z,97479.44
2022-11-03T13:21:29.179Z,97469.25
2022-11-03T13:23:55.858Z,97467.00
2022-11-03T13:26:22.562Z,97467.19
2022-11-03T13:28:49.719Z,97464.88
2022-11-03T13:31:16.429Z,97475.78
2022-11-03T13:33:43.101Z,97469.53
2022-11-03T13:36:09.839Z,97470.09
2022-11-03T13:38:36.599Z,97455.88
2022-11-03T13:41:08.427Z,97459.78
2022-11-03T13:43:35.605Z,97459.44
2022-11-03T13:46:02.356Z,97451.22
2022-11-03T13:51:15.977Z,97445.69
2022-11-03T13:56:29.877Z,97445.25
2022-11-03T14:01:43.874Z,97436.13
2022-11-03T14:06:57.295Z,97442.97
2022-11-03T14:09:24.021Z,97437.00
2022-11-03T14:11:50.668Z,97434.78
2022-11-03T14:14:17.332Z,97439.69
2022-11-03T14:16:44.094Z,97442.94
2022-11-03T14:19:10.786Z,97440.81
2022-11-03T14:21:37.592Z,97436.72
2022-11-03T14:24:04.270Z,97432.25
2022-11-03T14:26:43.411Z,97425.88
2022-11-03T14:29:10.205Z,97429.66
2022-11-03T14:31:36.897Z,97418.31
2022-11-03T14:34:03.559Z,97419.72
2022-11-03T14:36:30.199Z,97423.03
2022-11-03T14:38:56.860Z,97427.56
2022-11-03T14:41:23.496Z,97424.34
2022-11-03T14:43:50.124Z,97420.31
2022-11-03T14:46:16.832Z,97416.56
2022-11-03T14:48:43.615Z,97412.53
2022-11-03T14:51:10.269Z,97412.53
2022-11-03T14:53:36.906Z,97403.34
2022-11-03T14:56:03.538Z,97400.25
2022-11-03T14:58:30.192Z,97398.13
2022-11-03T15:00:56.966Z,97404.28
2022-11-03T15:03:23.679Z,97397.88
2022-11-03T15:05:50.372Z,97397.44
2022-11-03T15:08:17.125Z,97392.53
2022-11-03T15:10:43.735Z,97386.13
2022-11-03T15:13:10.410Z,97375.84
2022-11-03T15:15:37.058Z,97372.25
2022-11-03T15:20:48.010Z,97366.44
2022-11-03T15:26:01.341Z,97372.66
2022-11-03T15:28:28.003Z,97369.22
2022-11-03T15:30:54.629Z,97371.38
2022-11-03T15:33:21.274Z,97366.16
2022-11-03T15:35:47.941Z,97357.97
2022-11-03T15:38:14.559Z,97355.03
2022-11-03T15:40:41.216Z,97348.34
2022-11-03T15:43:07.854Z,97340.81
2022-11-03T15:45:34.536Z,97332.28
2022-11-03T15:48:01.155Z,97333.81
2022-11-03T15:50:27.779Z,97332.69
2022-11-03T15:52:54.427Z,97331.00
2022-11-03T15:55:21.146Z,97328.41
2022-11-03T15:57:47.824Z,97331.59
2022-11-03T16:00:14.461Z,97330.53
2022-11-03T16:02:42.033Z,97321.47
2022-11-03T16:05:09.086Z,97318.66
2022-11-03T16:07:35.714Z,97315.25
2022-11-03T16:10:02.434Z,97312.78
2022-11-03T16:12:30.045Z,97315.94
2022-11-03T16:14:56.781Z,97310.28
2022-11-03T16:17:23.382Z,97311.34
2022-11-03T16:19:50.019Z,97304.88
2022-11-03T16:22:16.682Z,97306.63
2022-11-03T16:24:43.292Z,97314.78
2022-11-03T16:27:10.036Z,97304.34
2022-11-03T16:29:36.701Z,97304.63
2022-11-03T16:32:03.352Z,97301.22
2022-11-03T16:34:29.995Z,97296.38
2022-11-03T16:36:56.781Z,97288.94
2022-11-03T16:39:23.412Z,97295.41
2022-11-03T16:41:50.373Z,97285.56
2022-11-03T16:44:17.014Z,97282.63
2022-11-03T16:46:43.692Z,97270.38
2022-11-03T16:49:10.422Z,97273.34
2022-11-03T16:51:37.046Z,97268.81
2022-11-03T16:54:03.692Z,97268.19
2022-11-03T16:56:30.337Z,97260.69
2022-11-03T16:58:57.107Z,97249.72
2022-11-03T17:01:23.889Z,97250.00
2022-11-03T17:03:50.603Z,97254.38
2022-11-03T17:06:17.358Z,97250.34
2022-11-03T17:08:52.915Z,97253.41
2022-11-03T17:11:20.258Z,97243.81
2022-11-03T17:13:46.941Z,97244.88
2022-11-03T17:16:13.744Z,97240.72
2022-11-03T17:21:24.717Z,97234.88
2022-11-03T17:23:51.376Z,97228.28
2022-11-03T17:26:18.126Z,97236.84
2022-11-03T17:28:44.749Z,97237.91
2022-11-03T17:31:11.412Z,97245.97
2022-11-03T17:33:38.057Z,97242.72
2022-11-03T17:36:04.698Z,97248.06
2022-11-03T17:38:31.588Z,97254.09
2022-11-03T17:40:58.230Z,97245.41
2022-11-03T17:43:24.878Z,97240.38
2022-11-03T17:45:51.476Z,97231.16
2022-11-03T17:48:18.136Z,97222.00
2022-11-03T17:50:44.800Z,97216.97
2022-11-03T17:53:11.496Z,97212.91
2022-11-03T17:55:38.134Z,97212.22
2022-11-03T17:58:04.847Z,97205.41
2022-11-03T18:00:31.611Z,97200.50
2022-11-03T18:02:58.255Z,97204.38
2022-11-03T18:05:24.922Z,97193.59
2022-11-03T18:07:51.568Z,97198.91
2022-11-03T18:10:18.220Z,97203.22
2022-11-03T18:12:44.987Z,97194.31
2022-11-03T18:15:11.790Z,97193.94
2022-11-03T18:17:38.526Z,97187.97
2022-11-03T18:20:05.171Z,97189.00
2022-11-03T18:22:31.832Z,97183.13
2022-11-03T18:24:58.482Z,97180.50
2022-11-03T18:27:25.485Z,97175.53
2022-11-03T18:29:52.411Z,97172.75
2022-11-03T18:32:19.058Z,97176.56
2022-11-03T18:34:45.725Z,97172.53
2022-11-03T18:37:12.571Z,97169.50
2022-11-03T18:39:39.225Z,97156.94
2022-11-03T18:42:05.888Z,97153.72
2022-11-03T18:44:32.560Z,97154.31
2022-11-03T18:46:59.194Z,97152.81
2022-11-03T18:49:25.832Z,97153.41
2022-11-03T18:51:53.667Z,97150.50
2022-11-03T18:54:23.222Z,97152.94
2022-11-03T18:56:49.863Z,97142.91
2022-11-03T18:59:16.495Z,97139.88
2022-11-03T19:01:43.351Z,97131.00
2022-11-03T19:04:10.125Z,97124.03
2022-11-03T19:06:36.876Z,97133.22
2022-11-03T19:09:03.505Z,97131.72
2022-11-03T19:11:30.175Z,97123.03
2022-11-03T19:13:56.815Z,97113.13
2022-11-03T19:16:23.511Z,97104.22
2022-11-03T19:18:50.190Z,97093.84
2022-11-03T19:21:16.919Z,97093.47
2022-11-03T19:23:47.779Z,97088.53
2022-11-03T19:26:15.183Z,97083.88
2022-11-03T19:28:41.871Z,97077.03
2022-11-03T19:31:08.505Z,97067.59
2022-11-03T19:33:35.140Z,97059.88
2022-11-03T19:36:01.776Z,97055.47
2022-11-03T19:38:28.446Z,97053.75
2022-11-03T19:40:55.172Z,97047.16
2022-11-03T19:43:21.867Z,97041.53
2022-11-03T19:45:48.728Z,97039.22
2022-11-03T19:48:31.096Z,97035.81
2022-11-03T19:50:58.156Z,97026.47
2022-11-03T19:53:24.795Z,97032.13
2022-11-03T19:55:51.487Z,97025.31
2022-11-03T19:58:18.110Z,97023.94
2022-11-03T20:00:44.830Z,97018.06
2022-11-03T20:03:11.660Z,97006.75
2022-11-03T20:05:38.322Z,97007.53
2022-11-03T20:08:05.328Z,97007.66
2022-11-03T20:10:35.811Z,97001.22
2022-11-03T20:13:02.923Z,97002.03
2022-11-03T20:15:29.605Z,97011.38
2022-11-03T20:17:56.259Z,97003.88
2022-11-03T20:20:22.927Z,97004.09
2022-11-03T20:22:49.557Z,97012.06
2022-11-03T20:25:16.218Z,97016.91
2022-11-03T20:27:42.860Z,97016.91
2022-11-03T20:30:09.572Z,97001.47
2022-11-03T20:32:36.274Z,97007.09
2022-11-03T20:35:02.896Z,96991.78
2022-11-03T20:37:29.641Z,96988.66
2022-11-03T20:39:56.342Z,96991.91
2022-11-03T20:42:22.981Z,96985.66
2022-11-03T20:44:49.595Z,96977.38
2022-11-03T20:47:16.315Z,96970.09
2022-11-03T20:49:43.050Z,96972.06
2022-11-03T20:52:09.783Z,96964.81
2022-11-03T20:54:36.557Z,96966.41
2022-11-03T20:57:03.249Z,96959.28
2022-11-03T20:59:32.081Z,96958.91
2022-11-03T21:02:01.299Z,96957.19
2022-11-03T21:04:28.120Z,96950.97
2022-11-03T21:06:54.799Z,96961.31
2022-11-03T21:09:21.455Z,96959.69
2022-11-03T21:11:48.122Z,96965.59
2022-11-03T21:14:14.781Z,96957.88
2022-11-03T21:16:41.531Z,96954.78
2022-11-03T21:19:08.213Z,96951.66
2022-11-03T21:21:34.840Z,96945.09
2022-11-03T21:24:01.675Z,96944.41
2022-11-03T21:26:28.321Z,96945.09
2022-11-03T21:28:54.974Z,96940.59
2022-11-03T21:31:21.612Z,96941.88
2022-11-03T21:33:48.469Z,96935.22
2022-11-03T21:36:15.168Z,96938.44
2022-11-03T21:38:41.855Z,96925.69
2022-11-03T21:41:08.600Z,96920.41
2022-11-03T21:43:35.224Z,96916.84
2022-11-03T21:46:01.878Z,96907.28
2022-11-03T21:48:28.518Z,96899.22
2022-11-03T21:50:55.183Z,96899.81
2022-11-03T21:53:21.833Z,96893.56
2022-11-03T21:55:48.483Z,96898.28
2022-11-03T21:58:15.175Z,96895.31
2022-11-03T22:00:41.984Z,96894.28
2022-11-03T22:03:09.141Z,96887.00
2022-11-03T22:05:35.941Z,96886.34
2022-11-03T22:08:02.822Z,96872.59
2022-11-03T22:10:29.471Z,96869.03
2022-11-03T22:12:56.285Z,96862.22
2022-11-03T22:15:22.943Z,96861.56
2022-11-03T22:17:49.565Z,96856.13
2022-11-03T22:20:16.203Z,96852.28
2022-11-03T22:22:42.822Z,96848.03
2022-11-03T22:25:09.522Z,96839.63
2022-11-03T22:27:36.286Z,96843.66
2022-11-03T22:30:02.992Z,96833.53
2022-11-03T22:32:29.644Z,96832.03
2022-11-03T22:34:56.282Z,96833.53
2022-11-03T22:37:22.933Z,96831.94
2022-11-03T22:39:49.804Z,96826.41
2022-11-03T22:42:16.527Z,96834.81
2022-11-03T22:44:43.381Z,96839.50
2022-11-03T22:47:11.330Z,96841.22
2022-11-03T22:49:39.925Z,96831.22
2022-11-03T22:52:06.676Z,96821.06
2022-11-03T22:54:33.302Z,96824.31
2022-11-03T22:56:59.953Z,96824.88
2022-11-03T22:59:26.570Z,96818.91
2022-11-03T23:01:53.352Z,96811.63
2022-11-03T23:04:20.058Z,96808.63
2022-11-03T23:06:46.712Z,96801.13
2022-11-03T23:09:13.407Z,96811.97
2022-11-03T23:11:40.094Z,96801.09
2022-11-03T23:14:06.769Z,96800.53
2022-11-03T23:16:33.623Z,96791.69
2022-11-03T23:19:00.282Z,96792.06
2022-11-03T23:21:26.909Z,96788.84
2022-11-03T23:23:53.521Z,96782.06
2022-11-03T23:26:20.189Z,96775.16
2022-11-03T23:28:46.834Z,96765.16
2022-11-03T23:31:13.457Z,96764.78
2022-11-03T23:33:40.119Z,96761.22
2022-11-03T23:36:06.764Z,96746.25
2022-11-03T23:38:33.484Z,96757.66
2022-11-03T23:41:00.162Z,96753.63
2022-11-03T23:43:26.829Z,96753.06
2022-11-03T23:45:53.522Z,96754.56
2022-11-03T23:48:20.221Z,96743.22
2022-11-03T23:50:46.961Z,96739.69
2022-11-03T23:53:13.697Z,96739.94
2022-11-03T23:55:40.570Z,96743.94
2022-11-03T23:58:07.719Z,96728.94
